createdAt,value
2023-03-29T00:01:36.164Z,11.75
2023-03-29T00:04:39.059Z,15.25
2023-03-29T00:07:41.836Z,9.70
2023-03-29T00:10:43.801Z,4.47
2023-03-29T00:13:46.443Z,6.75
2023-03-29T00:16:48.905Z,5.20
2023-03-29T00:19:51.026Z,4.40
2023-03-29T00:22:52.933Z,8.95
2023-03-29T00:25:55.775Z,10.13
2023-03-29T00:28:57.637Z,5.38
2023-03-29T00:32:00.288Z,4.25
2023-03-29T00:35:02.395Z,5.43
2023-03-29T00:38:06.218Z,3.90
2023-03-29T00:41:09.197Z,3.20
2023-03-29T00:44:55.400Z,3.92
2023-03-29T00:48:03.012Z,8.27
2023-03-29T00:51:10.051Z,13.55
2023-03-29T00:54:18.748Z,10.67
2023-03-29T00:57:22.565Z,15.77
2023-03-29T01:00:31.820Z,11.50
2023-03-29T01:03:46.382Z,15.38
2023-03-29T01:07:06.412Z,10.25
2023-03-29T01:10:16.229Z,13.23
2023-03-29T01:13:27.295Z,12.27
2023-03-29T01:16:33.109Z,10.23
2023-03-29T01:19:42.310Z,12.70
2023-03-29T01:23:03.365Z,25.05
2023-03-29T01:26:23.020Z,43.43
2023-03-29T01:29:29.266Z,49.20
2023-03-29T01:32:42.228Z,37.47
2023-03-29T01:35:51.174Z,16.65
2023-03-29T01:38:57.081Z,19.58
2023-03-29T01:42:10.017Z,11.73
2023-03-29T01:45:27.015Z,8.53
2023-03-29T01:48:36.470Z,8.95
2023-03-29T01:51:48.325Z,7.03
2023-03-29T01:55:08.872Z,5.65
2023-03-29T01:58:13.454Z,7.90
2023-03-29T02:01:21.383Z,8.73
2023-03-29T02:04:30.559Z,5.63
2023-03-29T02:07:37.348Z,5.72
2023-03-29T02:10:39.866Z,6.82
2023-03-29T02:13:42.125Z,4.85
2023-03-29T02:16:46.349Z,6.63
2023-03-29T02:19:51.907Z,7.65
2023-03-29T02:23:08.910Z,6.85
2023-03-29T02:26:11.576Z,5.93
2023-03-29T02:29:14.134Z,8.15
2023-03-29T02:32:21.137Z,7.13
2023-03-29T02:35:53.342Z,8.32
2023-03-29T02:38:58.035Z,5.80
2023-03-29T02:42:03.049Z,7.60
2023-03-29T02:45:06.312Z,9.17
2023-03-29T02:48:12.551Z,406.13
2023-03-29T02:51:22.093Z,1119.55
2023-03-29T02:54:29.969Z,941.22
2023-03-29T02:57:32.486Z,994.20
2023-03-29T03:00:38.344Z,1109.03
2023-03-29T03:03:41.395Z,631.37
2023-03-29T03:06:43.463Z,1011.80
2023-03-29T03:09:47.711Z,1028.18
2023-03-29T03:12:49.978Z,1162.25
2023-03-29T03:15:51.985Z,705.97
2023-03-29T03:18:55.763Z,440.27
2023-03-29T03:21:57.842Z,210.43
2023-03-29T03:24:59.753Z,198.25
2023-03-29T03:28:02.545Z,173.65
2023-03-29T03:31:05.426Z,122.20
2023-03-29T03:34:27.694Z,87.60
2023-03-29T03:37:34.947Z,61.38
2023-03-29T03:40:37.364Z,43.47
2023-03-29T03:43:42.438Z,27.83
2023-03-29T03:46:44.392Z,20.80
2023-03-29T03:49:46.635Z,17.00
2023-03-29T03:52:50.196Z,21.42
2023-03-29T03:55:55.945Z,20.00
2023-03-29T03:59:01.557Z,13.18
2023-03-29T04:02:08.125Z,14.27
2023-03-29T04:05:12.602Z,15.60
2023-03-29T04:08:15.137Z,16.42
2023-03-29T04:11:36.957Z,13.25
2023-03-29T04:14:40.427Z,18.80
2023-03-29T04:17:46.089Z,21.70
2023-03-29T04:20:59.636Z,48.60
2023-03-29T04:24:03.739Z,55.70
2023-03-29T04:27:08.815Z,59.10
2023-03-29T04:30:11.757Z,49.58
2023-03-29T04:33:35.158Z,56.40
2023-03-29T04:36:36.990Z,45.97
2023-03-29T04:39:42.439Z,50.72
2023-03-29T04:42:45.938Z,41.88
2023-03-29T04:45:48.046Z,53.97
2023-03-29T04:49:04.307Z,43.93
2023-03-29T04:52:10.457Z,59.33
2023-03-29T04:55:13.159Z,81.60
2023-03-29T04:58:31.632Z,36.92
2023-03-29T05:01:35.163Z,27.35
2023-03-29T05:04:37.237Z,13.00
2023-03-29T05:07:46.530Z,17.63
2023-03-29T05:10:50.859Z,27.02
2023-03-29T05:13:52.961Z,33.63
2023-03-29T05:16:56.259Z,34.45
2023-03-29T05:19:58.370Z,21.23
2023-03-29T05:23:01.492Z,22.57
2023-03-29T05:26:23.254Z,21.58
2023-03-29T05:29:28.434Z,16.60
2023-03-29T05:32:45.162Z,13.95
2023-03-29T05:35:58.164Z,12.75
2023-03-29T05:39:00.426Z,7.70
2023-03-29T05:42:04.599Z,7.28
2023-03-29T05:45:11.608Z,7.68
2023-03-29T05:48:15.067Z,8.80
2023-03-29T05:51:19.028Z,16.67
2023-03-29T05:54:21.089Z,13.73
2023-03-29T05:57:23.113Z,11.63
2023-03-29T06:00:25.805Z,11.30
2023-03-29T06:03:39.488Z,13.90
2023-03-29T06:06:42.078Z,9.20
2023-03-29T06:09:44.709Z,7.83
2023-03-29T06:12:47.731Z,11.40
2023-03-29T06:15:50.077Z,13.10
2023-03-29T06:18:54.232Z,6.68
2023-03-29T06:21:56.660Z,11.70
2023-03-29T06:25:02.566Z,8.70
2023-03-29T06:28:07.733Z,9.75
2023-03-29T06:31:11.041Z,15.30
2023-03-29T06:34:16.493Z,9.70
2023-03-29T06:37:35.570Z,8.37
2023-03-29T06:40:52.817Z,8.13
2023-03-29T06:43:58.358Z,10.45
2023-03-29T06:47:08.616Z,3.05
2023-03-29T06:50:11.757Z,2.85
2023-03-29T06:53:28.221Z,9.63
2023-03-29T06:56:35.202Z,5.63
2023-03-29T06:59:44.383Z,7.35
2023-03-29T07:02:54.955Z,5.35
2023-03-29T07:06:04.258Z,4.97
2023-03-29T07:09:09.014Z,3.97
2023-03-29T07:12:29.382Z,3.73
2023-03-29T07:15:36.114Z,6.82
2023-03-29T07:18:56.051Z,3.72
2023-03-29T07:42:58.964Z,5.22
2023-03-29T07:46:05.922Z,4.95
2023-03-29T07:49:10.433Z,6.18
2023-03-29T07:52:12.998Z,6.00
2023-03-29T07:55:18.806Z,3.70
2023-03-29T07:58:40.390Z,5.15
2023-03-29T08:01:42.961Z,3.05
2023-03-29T08:04:54.784Z,4.88
2023-03-29T08:08:17.232Z,3.63
2023-03-29T08:11:26.238Z,5.25
2023-03-29T08:14:33.449Z,3.17
2023-03-29T08:17:44.944Z,7.93
2023-03-29T08:20:47.432Z,16.08
2023-03-29T08:23:49.694Z,3.50
2023-03-29T08:26:59.102Z,7.65
2023-03-29T08:30:01.465Z,5.32
2023-03-29T08:33:03.917Z,6.78
2023-03-29T08:36:06.184Z,6.22
2023-03-29T08:39:12.325Z,7.27
2023-03-29T08:42:39.819Z,5.70
2023-03-29T08:45:44.849Z,7.32
2023-03-29T08:48:57.717Z,5.82
2023-03-29T08:52:05.282Z,4.97
2023-03-29T08:55:17.711Z,7.37
2023-03-29T08:58:40.562Z,7.38
2023-03-29T09:01:43.625Z,3.83
2023-03-29T09:04:48.495Z,3.20
2023-03-29T09:08:17.434Z,3.58
2023-03-29T09:11:44.833Z,6.10
2023-03-29T09:14:50.774Z,3.60
2023-03-29T09:18:14.085Z,6.03
2023-03-29T09:21:35.598Z,4.53
2023-03-29T09:25:05.973Z,5.82
2023-03-29T09:28:55.611Z,4.37
2023-03-29T09:31:59.186Z,6.53
2023-03-29T09:35:18.737Z,12.18
2023-03-29T09:38:23.000Z,5.10
2023-03-29T09:41:43.567Z,3.92
2023-03-29T09:44:53.584Z,8.50
2023-03-29T09:48:06.438Z,8.73
2023-03-29T09:51:11.445Z,4.63
2023-03-29T09:54:14.928Z,6.15
2023-03-29T09:57:46.225Z,6.82
2023-03-29T10:00:51.083Z,3.60
2023-03-29T10:03:54.080Z,5.78
2023-03-29T10:06:59.976Z,6.47
2023-03-29T10:10:02.029Z,5.57
2023-03-29T10:13:10.979Z,5.18
2023-03-29T10:16:25.875Z,7.40
2023-03-29T10:19:31.015Z,3.83
2023-03-29T10:22:37.640Z,7.95
2023-03-29T10:25:42.560Z,4.43
2023-03-29T10:28:45.423Z,6.07
2023-03-29T10:31:48.020Z,10.73
2023-03-29T10:34:52.056Z,6.60
2023-03-29T10:38:00.189Z,5.28
2023-03-29T10:41:12.920Z,5.05
2023-03-29T10:44:32.888Z,7.15
2023-03-29T10:47:35.442Z,3.80
2023-03-29T10:50:38.256Z,5.10
2023-03-29T10:53:41.126Z,4.78
2023-03-29T10:56:58.012Z,3.38
2023-03-29T11:00:23.671Z,4.57
2023-03-29T11:03:31.482Z,4.83
2023-03-29T11:06:57.352Z,3.92
2023-03-29T11:10:25.990Z,10.93
2023-03-29T11:13:37.452Z,3.47
2023-03-29T11:16:42.749Z,4.20
2023-03-29T11:20:05.205Z,4.10
2023-03-29T11:23:27.978Z,3.33
2023-03-29T11:26:33.085Z,2.17
2023-03-29T11:30:03.790Z,3.38
2023-03-29T11:33:16.650Z,4.28
2023-03-29T11:36:32.347Z,5.20
2023-03-29T11:39:48.038Z,3.90
2023-03-29T11:42:54.363Z,2.63
2023-03-29T11:46:02.501Z,4.25
2023-03-29T11:49:16.680Z,3.35
2023-03-29T11:52:25.678Z,2.37
2023-03-29T11:55:33.059Z,1.75
2023-03-29T11:58:40.952Z,2.58
2023-03-29T12:01:57.513Z,1.95
2023-03-29T12:05:07.530Z,8.70
2023-03-29T12:08:16.855Z,4.13
2023-03-29T12:11:19.044Z,7.15
2023-03-29T12:14:28.333Z,3.25
2023-03-29T12:17:39.399Z,3.22
2023-03-29T12:20:42.195Z,3.47
2023-03-29T12:23:48.099Z,2.77
2023-03-29T12:27:19.885Z,2.70
2023-03-29T12:30:27.816Z,2.85
2023-03-29T12:33:53.851Z,2.00
2023-03-29T12:37:38.771Z,3.10
2023-03-29T12:41:02.117Z,57.47
2023-03-29T12:44:28.054Z,7.35
2023-03-29T12:47:51.486Z,2.30
2023-03-29T12:51:01.792Z,3.65
2023-03-29T12:54:10.294Z,3.53
2023-03-29T12:57:25.624Z,4.47
2023-03-29T13:00:42.249Z,2.67
2023-03-29T13:03:50.419Z,2.75
2023-03-29T13:07:02.798Z,5.15
2023-03-29T13:10:31.452Z,4.72
2023-03-29T13:13:37.235Z,7.63
2023-03-29T13:16:41.670Z,3.55
2023-03-29T13:19:49.402Z,4.03
2023-03-29T13:23:02.375Z,4.00
2023-03-29T13:26:28.964Z,4.28
2023-03-29T13:29:55.876Z,2.13
2023-03-29T13:33:39.652Z,3.55
2023-03-29T13:36:58.607Z,2.38
2023-03-29T13:40:00.717Z,10.23
2023-03-29T13:43:19.162Z,5.35
2023-03-29T13:46:36.600Z,2.67
2023-03-29T13:49:42.429Z,13.48
2023-03-29T13:53:10.158Z,8.05
2023-03-29T13:56:19.714Z,2.50
2023-03-29T13:59:41.768Z,2.10
2023-03-29T14:02:49.546Z,15.40
2023-03-29T14:05:58.926Z,6.88
2023-03-29T14:09:06.392Z,3.17
2023-03-29T14:12:12.223Z,2.15
2023-03-29T14:15:36.399Z,2.03
2023-03-29T14:18:41.311Z,3.97
2023-03-29T14:21:44.370Z,2.65
2023-03-29T14:24:51.642Z,2.67
2023-03-29T14:27:53.638Z,2.92
2023-03-29T14:30:56.673Z,3.30
2023-03-29T14:34:04.614Z,6.30
2023-03-29T14:37:09.095Z,2.75
2023-03-29T14:40:21.212Z,4.30
2023-03-29T14:43:24.235Z,2.67
2023-03-29T14:46:27.399Z,3.78
2023-03-29T14:49:30.147Z,3.57
2023-03-29T14:52:33.505Z,3.20
2023-03-29T14:55:36.587Z,19.15
2023-03-29T14:58:40.183Z,6.55
2023-03-29T15:01:44.598Z,2.17
2023-03-29T15:04:55.692Z,2.93
2023-03-29T15:07:57.834Z,5.05
2023-03-29T15:11:00.169Z,7.25
2023-03-29T15:14:08.802Z,6.57
2023-03-29T15:17:50.921Z,8.43
2023-03-29T15:20:54.626Z,7.33
2023-03-29T15:23:58.550Z,12.60
2023-03-29T15:27:12.376Z,8.30
2023-03-29T15:30:17.578Z,9.00
2023-03-29T15:33:23.056Z,20.75
2023-03-29T15:36:25.049Z,21.27
2023-03-29T15:39:28.800Z,16.35
2023-03-29T15:42:31.525Z,14.80
2023-03-29T15:45:33.484Z,21.67
2023-03-29T15:48:35.363Z,14.73
2023-03-29T15:51:37.472Z,11.73
2023-03-29T15:54:39.458Z,7.75
2023-03-29T15:57:46.460Z,7.03
2023-03-29T16:00:53.859Z,10.68
2023-03-29T16:03:57.890Z,11.77
2023-03-29T16:07:01.340Z,14.20
2023-03-29T16:10:03.945Z,14.30
2023-03-29T16:13:06.465Z,7.32
2023-03-29T16:16:10.744Z,8.60
2023-03-29T16:19:13.042Z,11.93
2023-03-29T16:22:14.910Z,9.13
2023-03-29T16:25:19.297Z,6.82
2023-03-29T16:28:21.767Z,6.82
2023-03-29T16:31:25.882Z,5.43
2023-03-29T16:34:28.595Z,5.07
2023-03-29T16:37:30.446Z,7.60
2023-03-29T16:40:33.323Z,3.58
2023-03-29T16:43:38.576Z,11.35
2023-03-29T16:46:41.611Z,26.15
2023-03-29T16:49:45.316Z,7.75
2023-03-29T16:52:49.009Z,12.87
2023-03-29T16:55:51.005Z,10.95
2023-03-29T16:58:52.918Z,12.80
2023-03-29T17:01:54.937Z,13.00
2023-03-29T17:04:57.726Z,5.47
2023-03-29T17:07:59.655Z,7.53
2023-03-29T17:11:03.111Z,13.88
2023-03-29T17:14:05.133Z,8.07
2023-03-29T17:17:06.986Z,8.00
2023-03-29T17:20:12.360Z,19.88
2023-03-29T17:23:14.367Z,7.53
2023-03-29T17:26:16.227Z,8.55
2023-03-29T17:29:18.172Z,7.32
2023-03-29T17:32:20.497Z,10.70
2023-03-29T17:35:22.679Z,8.95
2023-03-29T17:38:26.759Z,6.77
2023-03-29T17:41:30.785Z,8.57
2023-03-29T17:44:34.780Z,26.60
2023-03-29T17:47:37.602Z,20.42
2023-03-29T17:50:39.863Z,15.35
2023-03-29T17:53:41.997Z,12.97
2023-03-29T17:56:43.977Z,13.15
2023-03-29T17:59:46.210Z,7.32
2023-03-29T18:02:48.425Z,6.45
2023-03-29T18:05:51.259Z,5.75
2023-03-29T18:08:53.530Z,6.60
2023-03-29T18:11:55.604Z,9.20
2023-03-29T18:14:57.800Z,4.38
2023-03-29T18:18:00.089Z,5.45
2023-03-29T18:21:02.348Z,7.60
2023-03-29T18:24:04.311Z,6.20
2023-03-29T18:27:06.649Z,8.57
2023-03-29T18:30:09.440Z,11.00
2023-03-29T18:33:11.864Z,7.78
2023-03-29T18:36:14.570Z,7.72
2023-03-29T18:39:16.911Z,9.07
2023-03-29T18:42:21.956Z,9.15
2023-03-29T18:45:24.093Z,7.75
2023-03-29T18:48:26.539Z,7.72
2023-03-29T18:51:29.345Z,12.38
2023-03-29T18:54:31.828Z,9.40
2023-03-29T18:57:34.200Z,6.70
2023-03-29T19:00:37.355Z,10.15
2023-03-29T19:03:40.103Z,11.05
2023-03-29T19:06:42.610Z,13.52
2023-03-29T19:09:45.316Z,13.07
2023-03-29T19:12:47.517Z,14.82
2023-03-29T19:15:51.833Z,12.65
2023-03-29T19:18:54.319Z,8.35
2023-03-29T19:21:58.336Z,8.38
2023-03-29T19:25:04.675Z,6.83
2023-03-29T19:28:06.997Z,11.05
2023-03-29T19:31:10.228Z,10.38
2023-03-29T19:34:13.507Z,7.53
2023-03-29T19:37:17.622Z,7.80
2023-03-29T19:40:20.154Z,10.07
2023-03-29T19:43:22.329Z,8.73
2023-03-29T19:46:24.685Z,6.88
2023-03-29T19:49:26.779Z,8.80
2023-03-29T19:52:30.487Z,8.57
2023-03-29T19:55:32.534Z,6.73
2023-03-29T19:58:35.004Z,7.65
2023-03-29T20:01:39.451Z,6.57
2023-03-29T20:04:41.651Z,9.02
2023-03-29T20:07:44.560Z,9.27
2023-03-29T20:10:46.435Z,10.27
2023-03-29T20:13:48.782Z,6.75
2023-03-29T20:16:51.107Z,7.97
2023-03-29T20:19:53.988Z,8.40
2023-03-29T20:23:04.640Z,16.70
2023-03-29T20:26:08.425Z,17.87
2023-03-29T20:29:10.347Z,16.55
2023-03-29T20:32:12.514Z,15.07
2023-03-29T20:35:14.567Z,10.80
2023-03-29T20:38:16.480Z,13.90
2023-03-29T20:41:21.265Z,14.70
2023-03-29T20:44:28.350Z,13.50
2023-03-29T20:47:30.341Z,15.63
2023-03-29T20:50:32.389Z,19.35
2023-03-29T20:53:34.293Z,13.23
2023-03-29T20:56:39.831Z,12.77
2023-03-29T20:59:45.766Z,11.85
2023-03-29T21:02:47.804Z,13.45
2023-03-29T21:05:54.240Z,12.40
2023-03-29T21:08:57.470Z,12.63
2023-03-29T21:11:59.832Z,10.67
2023-03-29T21:15:02.406Z,12.95
2023-03-29T21:18:04.658Z,11.93
2023-03-29T21:21:08.060Z,10.20
2023-03-29T21:24:13.136Z,13.10
2023-03-29T21:27:15.049Z,7.87
2023-03-29T21:30:17.123Z,11.77
2023-03-29T21:33:19.078Z,12.00
2023-03-29T21:36:20.992Z,12.57
2023-03-29T21:39:26.067Z,14.05
2023-03-29T21:42:28.382Z,11.53
2023-03-29T21:45:30.606Z,12.15
2023-03-29T21:48:32.862Z,11.60
2023-03-29T21:51:35.374Z,11.15
2023-03-29T21:54:37.236Z,13.75
2023-03-29T21:57:39.077Z,10.80
2023-03-29T22:00:41.632Z,12.93
2023-03-29T22:03:44.322Z,9.75
2023-03-29T22:06:46.369Z,8.68
2023-03-29T22:09:48.440Z,12.85
2023-03-29T22:12:51.421Z,12.50
2023-03-29T22:16:03.620Z,11.88
2023-03-29T22:19:06.419Z,11.73
2023-03-29T22:22:13.372Z,8.60
2023-03-29T22:25:17.572Z,16.05
2023-03-29T22:28:19.531Z,24.97
2023-03-29T22:31:23.529Z,29.67
2023-03-29T22:34:25.695Z,19.83
2023-03-29T22:37:27.519Z,14.30
2023-03-29T22:40:33.128Z,13.20
2023-03-29T22:43:36.486Z,11.87
2023-03-29T22:46:38.581Z,12.52
2023-03-29T22:49:40.586Z,13.05
2023-03-29T22:52:42.475Z,17.30
2023-03-29T22:55:45.862Z,14.43
2023-03-29T22:58:47.964Z,12.93
2023-03-29T23:01:50.075Z,18.02
2023-03-29T23:04:52.191Z,15.63
2023-03-29T23:07:55.759Z,13.18
2023-03-29T23:10:58.384Z,12.10
2023-03-29T23:14:03.991Z,15.93
2023-03-29T23:17:06.114Z,14.48
2023-03-29T23:20:11.047Z,13.43
2023-03-29T23:23:13.212Z,16.80
2023-03-29T23:26:15.892Z,14.20
2023-03-29T23:29:17.930Z,15.60
2023-03-29T23:32:20.528Z,13.00
2023-03-29T23:35:22.461Z,12.70
2023-03-29T23:38:24.658Z,16.50
2023-03-29T23:41:30.744Z,14.65
2023-03-29T23:44:32.740Z,13.80
2023-03-29T23:47:35.479Z,16.20
2023-03-29T23:50:37.487Z,15.43
2023-03-29T23:53:39.639Z,13.25
2023-03-29T23:56:41.542Z,13.20
2023-03-29T23:59:43.501Z,15.53
